Frem Nordica — OVIL2 — position and weather

sailwx.info

Track history (hours):
 
Tides and Currents Weather Stations Pressure Air Temp Water Temp Dewpoint Dewpoint Depression Visibility Wind Speed Wind Dir Waves Ship Positions

Frem Nordica

Last reported at 2016-Aug-25 06:23 UTC. Time now 2016-Aug-25 07:59 UTC.
Position N 55°12' E 012°10'.

Length 79 m; draft 2.9 m.

Type: Ship. MMSI: 220439000.

Date/timePositionNaut miles runAvg speedWind from/ knotsBaromVisibWave heightAir tempDewpointWater temp
2016-Aug-25 06:23N 55°12' E 012°10'14 7.5
2016-Aug-25 04:33N 55°19' E 012°31'9 8.7
2016-Aug-25 03:33N 55°27' E 012°38'8 8.2
2016-Aug-25 02:34N 55°35' E 012°42'8 8.1
2016-Aug-25 01:33N 55°43' E 012°41'8 8.2
2016-Aug-25 00:33N 55°51' E 012°39'8 8.2
2016-Aug-24 23:33N 55°59' E 012°38'6 6.4
2016-Aug-24 22:33N 56°05' E 012°34'7 6.8
2016-Aug-24 21:33N 56°09' E 012°24'9 9.1
2016-Aug-24 20:32N 56°12' E 012°08'9 9.1
2016-Aug-24 19:33N 56°14' E 011°52'9 8.8
2016-Aug-24 18:33N 56°17' E 011°37'9 9.0
2016-Aug-24 17:30N 56°21' E 011°22'11 8.9
2016-Aug-24 16:16N 56°25' E 011°04'13 1.3
2016-Aug-24 06:09N 56°20' E 011°26'32 8.4
2016-Aug-24 02:24N 56°11' E 012°21'7 8.8
2016-Aug-24 01:33N 56°07' E 012°32'9 9.3
2016-Aug-24 00:33N 55°59' E 012°41'9 8.7
2016-Aug-23 23:33N 55°51' E 012°45'9 8.7
2016-Aug-23 22:33N 55°43' E 012°53'7 6.6
2016-Aug-23 21:33N 55°37' E 012°53'9 8.9
2016-Aug-23 20:33N 55°30' E 012°42'8 8.3
2016-Aug-23 19:33N 55°24' E 012°32'9 8.5
2016-Aug-23 18:33N 55°16' E 012°28'10 0.9
2016-Aug-23 07:20N 55°09' E 012°16'19 6.8
2016-Aug-23 04:33N 54°51' E 012°28'9 8.8
2016-Aug-23 03:32N 54°44' E 012°19'9 8.9
2016-Aug-23 02:33N 54°36' E 012°11'9 7.5
2016-Aug-23 01:18N 54°30' E 011°59'7 9.1
2016-Aug-23 00:33N 54°30' E 011°47'9 8.9
2016-Aug-22 23:33N 54°32' E 011°32'8 7.9
2016-Aug-22 22:33N 54°33' E 011°19'8 7.9
2016-Aug-22 21:33N 54°35' E 011°05'9 8.9
2016-Aug-22 20:33N 54°35' E 010°50'18 9.0
2016-Aug-22 18:33N 54°30' E 010°20'9 8.6
2016-Aug-22 17:33N 54°23' E 010°11'4 3.5
2016-Aug-22 16:33N 54°22' E 010°05'2 0.1
2016-Aug-21 20:23N 54°22' E 010°02'4 4.7
2016-Aug-21 19:34N 54°22' E 010°08'4 3.8
2016-Aug-21 18:33N 54°25' E 010°13'17 8.3
2016-Aug-21 16:29N 54°35' E 010°37'8 8.6
2016-Aug-21 15:34N 54°35' E 010°51'9 8.8
2016-Aug-21 14:34N 54°36' E 011°06'9 9.3
2016-Aug-21 13:34N 54°34' E 011°21'9 9.1
2016-Aug-21 12:34N 54°31' E 011°36'8 8.4
2016-Aug-21 11:33N 54°31' E 011°51'8 8.3
2016-Aug-21 10:33N 54°30' E 012°05'9 8.8
2016-Aug-21 09:33N 54°38' E 012°13'9 8.7
2016-Aug-21 08:33N 54°45' E 012°22'29 1.2
2016-Aug-20 09:08N 55°13' E 012°10'0 0.0
2016-Aug-20 08:27N 55°13' E 012°10'0 0.0
2016-Aug-20 07:21N 55°13' E 012°10'0 0.0
2016-Aug-20 04:33N 55°13' E 012°10'4 4.5
2016-Aug-20 03:33N 55°09' E 012°15'4 3.0
2016-Aug-20 02:15N 55°11' E 012°21'1 1.9
2016-Aug-20 01:33N 55°11' E 012°23'7 6.7
2016-Aug-20 00:33N 55°04' E 012°26'7 6.6
2016-Aug-19 23:33N 54°59' E 012°34'9 8.7
2016-Aug-19 22:33N 54°51' E 012°28'9 9.1
2016-Aug-19 21:33N 54°44' E 012°19'9 8.7
2016-Aug-19 20:33N 54°37' E 012°11'9 7.9
2016-Aug-19 19:27N 54°30' E 012°01'7 8.1
2016-Aug-19 18:33N 54°30' E 011°49'8 8.4
2016-Aug-19 17:33N 54°31' E 011°34'8 8.3
2016-Aug-19 16:33N 54°35' E 011°21'8 8.1
2016-Aug-19 15:34N 54°39' E 011°09'8 8.1
2016-Aug-19 14:33N 54°40' E 010°55'8 8.4
2016-Aug-19 13:33N 54°41' E 010°41'9 9.1
2016-Aug-19 12:33N 54°46' E 010°28'4 0.3
2016-Aug-18 22:25N 54°49' E 010°22'7 8.3
2016-Aug-18 21:33N 54°45' E 010°33'9 8.9
2016-Aug-18 20:34N 54°41' E 010°46'10 9.5
2016-Aug-18 19:33N 54°39' E 011°02'9 9.2
2016-Aug-18 18:33N 54°35' E 011°17'9 8.6
2016-Aug-18 17:33N 54°32' E 011°31'8 7.9
2016-Aug-18 16:33N 54°30' E 011°44'8 7.6
2016-Aug-18 15:33N 54°30' E 011°57'7 7.0
2016-Aug-18 14:33N 54°33' E 012°08'  
2016-Aug-15 16:33N 55°11' E 012°20'8 8.2
2016-Aug-15 15:33N 55°10' E 012°34'9 8.4
2016-Aug-15 14:31N 55°09' E 012°50'42 8.5
2016-Aug-15 09:32N 55°13' E 014°04'8 7.8
2016-Aug-15 08:33N 55°14' E 014°17'8 8.4
2016-Aug-15 07:33N 55°21' E 014°26'8 8.5
2016-Aug-15 06:33N 55°27' E 014°36'  
Track history (hours):
 
Tides and Currents Weather Stations Pressure Air Temp Water Temp Dewpoint Dewpoint Depression Visibility Wind Speed Wind Dir Waves Ship Positions

Frem Nordica

Last reported at 2016-Aug-25 06:23 UTC. Time now 2016-Aug-25 07:59 UTC.
Position N 55°12' E 012°10'.

Length 79 m; draft 2.9 m.

Type: Ship. MMSI: 220439000.

Date/timePositionNaut miles runAvg speedWind from/ knotsBaromVisibWave heightAir tempDewpointWater temp
2016-Aug-25 06:23N 55°12' E 012°10'14 7.5
2016-Aug-25 04:33N 55°19' E 012°31'9 8.7
2016-Aug-25 03:33N 55°27' E 012°38'8 8.2
2016-Aug-25 02:34N 55°35' E 012°42'8 8.1
2016-Aug-25 01:33N 55°43' E 012°41'8 8.2
2016-Aug-25 00:33N 55°51' E 012°39'8 8.2
2016-Aug-24 23:33N 55°59' E 012°38'6 6.4
2016-Aug-24 22:33N 56°05' E 012°34'7 6.8
2016-Aug-24 21:33N 56°09' E 012°24'9 9.1
2016-Aug-24 20:32N 56°12' E 012°08'9 9.1
2016-Aug-24 19:33N 56°14' E 011°52'9 8.8
2016-Aug-24 18:33N 56°17' E 011°37'9 9.0
2016-Aug-24 17:30N 56°21' E 011°22'11 8.9
2016-Aug-24 16:16N 56°25' E 011°04'13 1.3
2016-Aug-24 06:09N 56°20' E 011°26'32 8.4
2016-Aug-24 02:24N 56°11' E 012°21'7 8.8
2016-Aug-24 01:33N 56°07' E 012°32'9 9.3
2016-Aug-24 00:33N 55°59' E 012°41'9 8.7
2016-Aug-23 23:33N 55°51' E 012°45'9 8.7
2016-Aug-23 22:33N 55°43' E 012°53'7 6.6
2016-Aug-23 21:33N 55°37' E 012°53'9 8.9
2016-Aug-23 20:33N 55°30' E 012°42'8 8.3
2016-Aug-23 19:33N 55°24' E 012°32'9 8.5
2016-Aug-23 18:33N 55°16' E 012°28'10 0.9
2016-Aug-23 07:20N 55°09' E 012°16'19 6.8
2016-Aug-23 04:33N 54°51' E 012°28'9 8.8
2016-Aug-23 03:32N 54°44' E 012°19'9 8.9
2016-Aug-23 02:33N 54°36' E 012°11'9 7.5
2016-Aug-23 01:18N 54°30' E 011°59'7 9.1
2016-Aug-23 00:33N 54°30' E 011°47'9 8.9
2016-Aug-22 23:33N 54°32' E 011°32'8 7.9
2016-Aug-22 22:33N 54°33' E 011°19'8 7.9
2016-Aug-22 21:33N 54°35' E 011°05'9 8.9
2016-Aug-22 20:33N 54°35' E 010°50'18 9.0
2016-Aug-22 18:33N 54°30' E 010°20'9 8.6
2016-Aug-22 17:33N 54°23' E 010°11'4 3.5
2016-Aug-22 16:33N 54°22' E 010°05'2 0.1
2016-Aug-21 20:23N 54°22' E 010°02'4 4.7
2016-Aug-21 19:34N 54°22' E 010°08'4 3.8
2016-Aug-21 18:33N 54°25' E 010°13'17 8.3
2016-Aug-21 16:29N 54°35' E 010°37'8 8.6
2016-Aug-21 15:34N 54°35' E 010°51'9 8.8
2016-Aug-21 14:34N 54°36' E 011°06'9 9.3
2016-Aug-21 13:34N 54°34' E 011°21'9 9.1
2016-Aug-21 12:34N 54°31' E 011°36'8 8.4
2016-Aug-21 11:33N 54°31' E 011°51'8 8.3
2016-Aug-21 10:33N 54°30' E 012°05'9 8.8
2016-Aug-21 09:33N 54°38' E 012°13'9 8.7
2016-Aug-21 08:33N 54°45' E 012°22'29 1.2
2016-Aug-20 09:08N 55°13' E 012°10'0 0.0
2016-Aug-20 08:27N 55°13' E 012°10'0 0.0
2016-Aug-20 07:21N 55°13' E 012°10'0 0.0
2016-Aug-20 04:33N 55°13' E 012°10'4 4.5
2016-Aug-20 03:33N 55°09' E 012°15'4 3.0
2016-Aug-20 02:15N 55°11' E 012°21'1 1.9
2016-Aug-20 01:33N 55°11' E 012°23'7 6.7
2016-Aug-20 00:33N 55°04' E 012°26'7 6.6
2016-Aug-19 23:33N 54°59' E 012°34'9 8.7
2016-Aug-19 22:33N 54°51' E 012°28'9 9.1
2016-Aug-19 21:33N 54°44' E 012°19'9 8.7
2016-Aug-19 20:33N 54°37' E 012°11'9 7.9
2016-Aug-19 19:27N 54°30' E 012°01'7 8.1
2016-Aug-19 18:33N 54°30' E 011°49'8 8.4
2016-Aug-19 17:33N 54°31' E 011°34'8 8.3
2016-Aug-19 16:33N 54°35' E 011°21'8 8.1
2016-Aug-19 15:34N 54°39' E 011°09'8 8.1
2016-Aug-19 14:33N 54°40' E 010°55'8 8.4
2016-Aug-19 13:33N 54°41' E 010°41'9 9.1
2016-Aug-19 12:33N 54°46' E 010°28'4 0.3
2016-Aug-18 22:25N 54°49' E 010°22'7 8.3
2016-Aug-18 21:33N 54°45' E 010°33'9 8.9
2016-Aug-18 20:34N 54°41' E 010°46'10 9.5
2016-Aug-18 19:33N 54°39' E 011°02'9 9.2
2016-Aug-18 18:33N 54°35' E 011°17'9 8.6
2016-Aug-18 17:33N 54°32' E 011°31'8 7.9
2016-Aug-18 16:33N 54°30' E 011°44'8 7.6
2016-Aug-18 15:33N 54°30' E 011°57'7 7.0
2016-Aug-18 14:33N 54°33' E 012°08'  
2016-Aug-15 16:33N 55°11' E 012°20'8 8.2
2016-Aug-15 15:33N 55°10' E 012°34'9 8.4
2016-Aug-15 14:31N 55°09' E 012°50'42 8.5
2016-Aug-15 09:32N 55°13' E 014°04'8 7.8
2016-Aug-15 08:33N 55°14' E 014°17'8 8.4
2016-Aug-15 07:33N 55°21' E 014°26'8 8.5
2016-Aug-15 06:33N 55°27' E 014°36'  

Dump ship's entire track history